Time;durP1;ratioP1;P1;durP2;ratioP2;P2;SDS_P1;SDS_P2;PMS_P1;PMS_P2;Temp;Humidity;BMP_temperature;BMP_pressure;BME280_temperature;BME280_humidity;BME280_pressure;Samples;Min_cycle;Max_cycle;Signal;HPM_P1;HPM_P2
2021/12/31 00:00:53;;;;;;;4.18;1.77;;;11.90;99.90;;;;;;5050360;28;20587;-74
2021/12/31 00:03:19;;;;;;;2.10;1.45;;;11.90;99.90;;;;;;5051107;28;20221;-74
2021/12/31 00:05:46;;;;;;;1.55;1.45;;;11.80;99.90;;;;;;5050640;28;20691;-75
2021/12/31 00:08:13;;;;;;;5.57;1.70;;;11.80;99.90;;;;;;5050808;28;20219;-74
2021/12/31 00:10:40;;;;;;;3.20;1.30;;;11.80;99.90;;;;;;5050771;28;20211;-74
2021/12/31 00:13:07;;;;;;;2.53;1.77;;;11.80;99.90;;;;;;5049772;28;20599;-75
2021/12/31 00:15:34;;;;;;;1.63;1.45;;;11.80;99.90;;;;;;5050807;28;20201;-75
2021/12/31 00:18:02;;;;;;;1.85;1.70;;;11.70;99.90;;;;;;5050062;28;20228;-74
2021/12/31 00:20:29;;;;;;;3.05;2.05;;;11.80;99.90;;;;;;5050718;28;20197;-75
2021/12/31 00:25:31;;;;;;;2.40;1.40;;;11.80;99.90;;;;;;5050946;28;20227;-75
2021/12/31 00:27:58;;;;;;;4.13;1.70;;;11.70;99.90;;;;;;5050458;28;20204;-74
2021/12/31 00:30:25;;;;;;;1.75;1.30;;;11.70;99.90;;;;;;5050267;28;20201;-75
2021/12/31 00:32:52;;;;;;;3.17;1.65;;;11.70;99.90;;;;;;5049999;28;20200;-74
2021/12/31 00:35:20;;;;;;;1.67;1.55;;;11.60;99.90;;;;;;5050145;28;20295;-75
2021/12/31 00:37:47;;;;;;;2.45;1.80;;;11.70;99.90;;;;;;5050258;28;20217;-75
2021/12/31 00:40:17;;;;;;;1.90;1.70;;;11.60;99.90;;;;;;5050168;28;20232;-75
2021/12/31 00:42:44;;;;;;;2.05;1.75;;;11.60;99.90;;;;;;5049921;28;20206;-75
2021/12/31 00:45:13;;;;;;;1.80;1.70;;;11.50;99.90;;;;;;5050424;28;20208;-75
2021/12/31 00:47:40;;;;;;;1.92;1.33;;;11.50;99.90;;;;;;5050128;28;20208;-75
2021/12/31 00:50:08;;;;;;;2.00;1.20;;;11.50;99.90;;;;;;5050386;28;20307;-74
2021/12/31 00:52:36;;;;;;;2.00;1.60;;;11.50;99.90;;;;;;5049648;28;20208;-75
2021/12/31 00:55:04;;;;;;;2.00;1.70;;;11.40;99.90;;;;;;5050199;28;20225;-74
2021/12/31 00:57:30;;;;;;;3.35;1.50;;;11.40;99.90;;;;;;5049946;28;20821;-74
2021/12/31 00:59:57;;;;;;;1.75;1.60;;;11.30;99.90;;;;;;5050365;28;20207;-75
2021/12/31 01:02:27;;;;;;;2.80;1.50;;;11.30;99.90;;;;;;5049753;28;20201;-74
2021/12/31 01:04:54;;;;;;;1.88;1.73;;;11.20;99.90;;;;;;5049853;28;20225;-75
2021/12/31 01:07:21;;;;;;;2.00;1.70;;;11.20;99.90;;;;;;5050300;28;20204;-74
2021/12/31 01:09:49;;;;;;;2.25;2.05;;;11.20;99.90;;;;;;5050021;28;20205;-75
2021/12/31 01:12:16;;;;;;;2.80;1.80;;;11.10;99.90;;;;;;5049624;28;20205;-74
2021/12/31 01:14:54;;;;;;;1.83;1.60;;;11.00;99.90;;;;;;5050006;28;20221;-74
2021/12/31 01:17:35;;;;;;;1.88;1.55;;;11.00;99.90;;;;;;5049781;28;20220;-74
2021/12/31 01:20:02;;;;;;;1.83;1.73;;;10.90;99.90;;;;;;5049809;28;20305;-74
2021/12/31 01:22:31;;;;;;;2.08;1.77;;;10.90;99.90;;;;;;5049394;28;20201;-75
2021/12/31 01:25:00;;;;;;;2.28;1.55;;;10.80;99.90;;;;;;5049941;28;20704;-74
2021/12/31 01:27:27;;;;;;;2.08;1.52;;;10.80;99.90;;;;;;5049850;28;20201;-75
2021/12/31 01:29:54;;;;;;;3.33;1.70;;;10.70;99.90;;;;;;5049994;28;20201;-74
2021/12/31 01:32:20;;;;;;;1.70;1.60;;;10.60;99.90;;;;;;5049289;28;20208;-75
2021/12/31 01:34:47;;;;;;;2.38;1.65;;;10.60;99.90;;;;;;5050213;28;20227;-75
2021/12/31 01:37:14;;;;;;;1.55;1.42;;;10.50;99.90;;;;;;5049684;28;20787;-75
2021/12/31 01:39:42;;;;;;;2.00;1.42;;;10.50;99.90;;;;;;5051439;28;20201;-74
2021/12/31 01:42:13;;;;;;;2.70;1.73;;;10.40;99.90;;;;;;5053036;28;20296;-74
2021/12/31 01:44:44;;;;;;;2.42;1.75;;;10.40;99.90;;;;;;5053565;28;20221;-75
2021/12/31 01:47:15;;;;;;;4.22;1.70;;;10.30;99.90;;;;;;5053560;28;20201;-75
2021/12/31 01:49:54;;;;;;;1.75;1.55;;;10.30;99.90;;;;;;5054359;28;20205;-74
2021/12/31 01:52:21;;;;;;;2.33;1.42;;;10.20;99.90;;;;;;5053153;28;20209;-74
2021/12/31 01:54:49;;;;;;;1.70;1.60;;;10.20;99.90;;;;;;5053489;28;20609;-75
2021/12/31 01:57:18;;;;;;;5.43;1.70;;;10.10;99.90;;;;;;5053227;28;20397;-74
2021/12/31 01:59:45;;;;;;;3.10;1.83;;;10.00;99.90;;;;;;5053363;28;20197;-74
2021/12/31 02:02:12;;;;;;;1.92;1.45;;;10.00;99.90;;;;;;5052097;28;20212;-74
2021/12/31 02:04:40;;;;;;;2.00;1.80;;;9.90;99.90;;;;;;5052996;28;20225;-74
2021/12/31 02:07:08;;;;;;;2.50;2.15;;;9.90;99.90;;;;;;5052695;28;20197;-74
2021/12/31 02:09:43;;;;;;;5.53;1.90;;;9.80;99.90;;;;;;5052997;28;20209;-74
2021/12/31 02:12:11;;;;;;;2.50;1.65;;;9.80;99.90;;;;;;5052203;28;20337;-75
2021/12/31 02:14:39;;;;;;;1.95;1.73;;;9.80;99.90;;;;;;5053074;28;20294;-74
2021/12/31 02:17:09;;;;;;;2.65;1.60;;;9.70;99.90;;;;;;5052696;28;20208;-74
2021/12/31 02:19:36;;;;;;;2.97;1.75;;;9.70;99.90;;;;;;5052718;28;20710;-74
2021/12/31 02:22:05;;;;;;;2.47;1.92;;;9.60;99.90;;;;;;5052907;28;20213;-74
2021/12/31 02:24:35;;;;;;;2.80;1.58;;;9.60;99.90;;;;;;5052945;28;20228;-74
2021/12/31 02:27:01;;;;;;;1.63;1.50;;;9.60;99.90;;;;;;5052642;28;20971;-74
2021/12/31 02:29:28;;;;;;;3.53;2.03;;;9.60;99.90;;;;;;5052689;28;20202;-74
2021/12/31 02:31:55;;;;;;;1.60;1.48;;;9.60;99.90;;;;;;5051946;28;20318;-73
2021/12/31 02:34:22;;;;;;;2.10;1.48;;;9.50;99.90;;;;;;5052448;28;20229;-73
2021/12/31 02:36:49;;;;;;;2.08;1.50;;;9.50;99.90;;;;;;5052224;28;20220;-73
2021/12/31 02:39:17;;;;;;;1.70;1.60;;;9.50;99.90;;;;;;5052366;28;20225;-73
2021/12/31 02:41:44;;;;;;;1.77;1.42;;;9.40;99.90;;;;;;5051724;28;20197;-73
2021/12/31 02:44:11;;;;;;;1.95;1.75;;;9.40;99.90;;;;;;5052226;28;20638;-73
2021/12/31 02:46:38;;;;;;;2.75;1.65;;;9.40;99.90;;;;;;5052070;28;20197;-73
2021/12/31 02:49:04;;;;;;;3.28;1.60;;;9.40;99.90;;;;;;5052190;28;20204;-73
2021/12/31 02:51:31;;;;;;;1.63;1.52;;;9.30;99.90;;;;;;5050794;28;20203;-73
2021/12/31 02:54:02;;;;;;;2.03;1.73;;;9.30;99.90;;;;;;5051943;28;20223;-73
2021/12/31 02:56:30;;;;;;;1.95;1.50;;;9.30;99.90;;;;;;5052948;28;20205;-73
2021/12/31 02:58:58;;;;;;;1.85;1.70;;;9.30;99.90;;;;;;5052243;28;20232;-73
2021/12/31 03:01:25;;;;;;;2.67;1.30;;;9.30;99.90;;;;;;5052350;28;20201;-73
2021/12/31 03:03:54;;;;;;;2.08;1.67;;;9.20;99.90;;;;;;5052481;28;20221;-74
2021/12/31 03:06:22;;;;;;;2.85;1.60;;;9.20;99.90;;;;;;5052307;28;20205;-73
2021/12/31 03:08:49;;;;;;;2.67;1.77;;;9.10;99.90;;;;;;5052083;28;20212;-74
2021/12/31 03:11:20;;;;;;;1.70;1.60;;;9.00;99.90;;;;;;5051141;28;20212;-75
2021/12/31 03:13:52;;;;;;;1.63;1.52;;;8.90;99.90;;;;;;5052080;28;20225;-74
2021/12/31 03:16:21;;;;;;;2.35;1.80;;;8.90;99.90;;;;;;5051462;28;20205;-74
2021/12/31 03:18:49;;;;;;;1.55;1.45;;;8.80;99.90;;;;;;5051708;28;20290;-74
2021/12/31 03:21:22;;;;;;;3.55;1.80;;;8.70;99.90;;;;;;5050964;28;20205;-74
2021/12/31 03:23:52;;;;;;;1.83;1.65;;;8.60;99.90;;;;;;5051738;28;20225;-74
2021/12/31 03:26:19;;;;;;;2.03;1.50;;;8.50;99.90;;;;;;5051887;28;20201;-74
2021/12/31 03:28:46;;;;;;;2.22;2.00;;;8.50;99.90;;;;;;5051464;28;20201;-73
2021/12/31 03:31:14;;;;;;;2.10;1.50;;;8.50;99.90;;;;;;5050803;28;20208;-74
2021/12/31 03:33:40;;;;;;;2.00;1.83;;;8.40;99.90;;;;;;5051273;28;20283;-74
2021/12/31 03:36:07;;;;;;;2.53;1.67;;;8.30;99.90;;;;;;5051174;28;20205;-73
2021/12/31 03:38:34;;;;;;;1.85;1.48;;;8.20;99.90;;;;;;5071172;22;20233;-79
2021/12/31 03:41:01;;;;;;;3.03;1.67;;;8.10;99.90;;;;;;5062616;28;20196;-79
2021/12/31 03:43:28;;;;;;;3.28;2.20;;;8.00;99.90;;;;;;5064843;28;20218;-79
2021/12/31 03:45:54;;;;;;;3.20;1.75;;;7.90;99.90;;;;;;5065468;28;20258;-79
2021/12/31 03:48:23;;;;;;;1.88;1.50;;;7.90;99.90;;;;;;5065441;28;20291;-79
2021/12/31 03:50:50;;;;;;;4.05;1.70;;;7.80;99.90;;;;;;5065630;28;20211;-79
2021/12/31 03:53:17;;;;;;;1.98;1.77;;;7.80;99.90;;;;;;5063428;28;20299;-78
2021/12/31 03:55:45;;;;;;;1.90;1.63;;;7.80;99.90;;;;;;5062201;28;20205;-79
2021/12/31 03:58:12;;;;;;;1.85;1.70;;;7.80;99.90;;;;;;5061800;28;20217;-79
2021/12/31 04:00:39;;;;;;;1.65;1.42;;;7.70;99.90;;;;;;5060610;28;20204;-79
2021/12/31 04:03:07;;;;;;;1.58;1.30;;;7.70;99.90;;;;;;5060104;28;20217;-78
2021/12/31 04:05:35;;;;;;;2.53;1.58;;;7.70;99.90;;;;;;5060826;28;20205;-79
2021/12/31 04:08:02;;;;;;;3.42;2.20;;;7.60;99.90;;;;;;5060973;28;20205;-79
2021/12/31 04:10:29;;;;;;;2.00;1.60;;;7.60;99.90;;;;;;5061373;28;20201;-79
2021/12/31 04:12:55;;;;;;;2.17;1.50;;;7.60;99.90;;;;;;5060494;28;20205;-79
2021/12/31 04:15:22;;;;;;;2.03;1.73;;;7.60;99.90;;;;;;5060402;28;20683;-79
2021/12/31 04:17:49;;;;;;;1.98;1.58;;;7.60;99.90;;;;;;5060130;28;20201;-79
2021/12/31 04:20:20;;;;;;;3.35;1.52;;;7.60;99.90;;;;;;5060398;28;20219;-79
2021/12/31 04:22:53;;;;;;;2.83;2.38;;;7.60;99.90;;;;;;5059788;28;20212;-79
2021/12/31 04:25:21;;;;;;;1.58;1.48;;;7.60;99.90;;;;;;5060549;28;20204;-79
2021/12/31 04:27:48;;;;;;;4.35;1.80;;;7.60;99.90;;;;;;5060503;28;20205;-79
2021/12/31 04:30:15;;;;;;;3.60;2.22;;;7.60;99.90;;;;;;5060597;28;20209;-79
2021/12/31 04:32:42;;;;;;;2.47;1.83;;;7.60;99.90;;;;;;5060083;28;20197;-79
2021/12/31 04:35:11;;;;;;;4.47;1.52;;;7.70;99.90;;;;;;5060663;28;20699;-78
2021/12/31 04:37:39;;;;;;;6.03;1.90;;;7.70;99.90;;;;;;5056446;28;20215;-79
2021/12/31 04:40:09;;;;;;;4.05;1.85;;;7.80;99.90;;;;;;5055973;28;20217;-78
2021/12/31 04:42:36;;;;;;;2.15;1.60;;;7.80;99.90;;;;;;5056043;28;20203;-79
2021/12/31 04:45:04;;;;;;;2.15;1.60;;;7.80;99.90;;;;;;5057612;28;20239;-78
2021/12/31 04:47:31;;;;;;;1.67;1.40;;;7.80;99.90;;;;;;5057288;28;20339;-78
2021/12/31 04:49:57;;;;;;;1.92;1.52;;;7.90;99.90;;;;;;5057780;28;20201;-78
2021/12/31 04:52:24;;;;;;;3.00;1.90;;;7.90;99.90;;;;;;5058021;28;20207;-78
2021/12/31 04:54:51;;;;;;;2.95;1.63;;;7.90;99.90;;;;;;5059841;28;20228;-78
2021/12/31 04:57:20;;;;;;;2.10;1.90;;;7.90;99.90;;;;;;5060178;28;20570;-78
2021/12/31 04:59:47;;;;;;;2.85;1.77;;;7.90;99.90;;;;;;5058999;28;20312;-78
2021/12/31 05:02:13;;;;;;;2.60;1.83;;;8.00;99.90;;;;;;5059326;28;20201;-78
2021/12/31 05:04:40;;;;;;;5.07;2.30;;;8.00;99.90;;;;;;5054820;28;20221;-78
2021/12/31 05:07:07;;;;;;;3.15;1.73;;;8.00;99.90;;;;;;5054576;28;20212;-77
2021/12/31 05:09:34;;;;;;;3.25;1.90;;;8.10;99.90;;;;;;5057672;28;20676;-78
2021/12/31 05:12:01;;;;;;;2.80;2.22;;;8.10;99.90;;;;;;5058969;28;20208;-78
2021/12/31 05:14:29;;;;;;;1.95;1.58;;;8.10;99.90;;;;;;5061004;28;20235;-78
2021/12/31 05:16:56;;;;;;;2.78;1.90;;;8.10;99.90;;;;;;5063753;28;20207;-78
2021/12/31 05:19:23;;;;;;;3.15;1.98;;;8.00;99.90;;;;;;5063569;28;20225;-79
2021/12/31 05:21:50;;;;;;;1.90;1.52;;;8.00;99.90;;;;;;5061652;28;20240;-78
2021/12/31 05:24:16;;;;;;;1.95;1.50;;;7.90;99.90;;;;;;5064063;28;20229;-79
2021/12/31 05:26:43;;;;;;;2.20;1.70;;;7.80;99.90;;;;;;5065087;28;20615;-78
2021/12/31 05:29:10;;;;;;;1.77;1.67;;;7.70;99.90;;;;;;5063725;28;20208;-78
2021/12/31 05:31:38;;;;;;;2.28;1.63;;;7.70;99.90;;;;;;5062901;28;20227;-78
2021/12/31 05:34:05;;;;;;;3.78;1.98;;;7.60;99.90;;;;;;5062755;28;20225;-79
2021/12/31 05:36:32;;;;;;;2.08;1.40;;;7.50;99.90;;;;;;5063236;28;20554;-78
2021/12/31 05:38:58;;;;;;;1.92;1.63;;;7.50;99.90;;;;;;5062359;28;20221;-79
2021/12/31 05:41:25;;;;;;;3.83;1.90;;;7.40;99.90;;;;;;5061846;28;20216;-79
2021/12/31 05:43:52;;;;;;;2.58;1.90;;;7.40;99.90;;;;;;5059955;28;20229;-78
2021/12/31 05:46:18;;;;;;;3.47;1.70;;;7.50;99.90;;;;;;5060376;28;20691;-78
2021/12/31 05:48:46;;;;;;;2.35;1.73;;;7.60;99.90;;;;;;5061692;28;20588;-79
2021/12/31 05:51:14;;;;;;;2.90;1.58;;;7.60;99.90;;;;;;5061978;28;20205;-77
2021/12/31 05:53:41;;;;;;;2.95;1.70;;;7.70;99.90;;;;;;5054503;28;20229;-76
2021/12/31 05:56:07;;;;;;;2.28;2.05;;;7.70;99.90;;;;;;5053230;28;20205;-77
2021/12/31 05:58:34;;;;;;;2.65;2.10;;;7.80;99.90;;;;;;5053176;28;20236;-77
2021/12/31 06:01:01;;;;;;;3.22;1.88;;;7.90;99.90;;;;;;5052735;28;20227;-76
2021/12/31 06:03:27;;;;;;;2.20;1.75;;;8.00;99.90;;;;;;5053237;28;20231;-76
2021/12/31 06:05:55;;;;;;;2.70;2.10;;;8.10;99.90;;;;;;5053372;28;20209;-76
2021/12/31 06:08:23;;;;;;;2.10;1.90;;;8.20;99.90;;;;;;5052970;28;20205;-77
2021/12/31 06:10:49;;;;;;;5.22;1.95;;;8.30;99.90;;;;;;5052970;28;20216;-76
2021/12/31 06:13:17;;;;;;;2.25;2.05;;;8.30;99.90;;;;;;5052524;28;20236;-77
2021/12/31 06:15:44;;;;;;;2.38;1.75;;;8.30;99.90;;;;;;5053171;28;20197;-76
2021/12/31 06:18:11;;;;;;;2.45;1.85;;;8.20;99.90;;;;;;5052652;28;20576;-76
2021/12/31 06:20:38;;;;;;;2.00;1.77;;;8.20;99.90;;;;;;5052875;28;20221;-76
2021/12/31 06:23:06;;;;;;;2.65;1.90;;;8.20;99.90;;;;;;5052183;28;20236;-76
2021/12/31 06:25:33;;;;;;;5.43;2.38;;;8.20;99.90;;;;;;5052617;28;20201;-76
2021/12/31 06:28:01;;;;;;;2.80;2.00;;;8.20;99.90;;;;;;5052314;28;20245;-76
2021/12/31 06:30:28;;;;;;;2.30;1.88;;;8.30;99.90;;;;;;5052824;28;20260;-77
2021/12/31 06:32:55;;;;;;;2.38;1.80;;;8.30;99.90;;;;;;5051900;28;20229;-77
2021/12/31 06:35:21;;;;;;;2.88;2.00;;;8.40;99.90;;;;;;5052330;28;20197;-76
2021/12/31 06:37:51;;;;;;;2.20;2.00;;;8.40;99.90;;;;;;5052331;28;20228;-76
2021/12/31 06:40:19;;;;;;;3.30;2.20;;;8.40;99.90;;;;;;5051767;28;20231;-76
2021/12/31 06:42:46;;;;;;;2.08;1.70;;;8.40;99.90;;;;;;5051596;28;20212;-76
2021/12/31 06:45:13;;;;;;;1.95;1.85;;;8.40;99.90;;;;;;5052201;28;20636;-77
2021/12/31 06:47:39;;;;;;;2.10;1.90;;;8.40;99.90;;;;;;5052364;28;20220;-76
2021/12/31 06:50:06;;;;;;;2.78;2.15;;;8.50;99.90;;;;;;5052026;28;20200;-76
2021/12/31 06:52:38;;;;;;;2.00;1.75;;;8.40;99.90;;;;;;5051851;28;20205;-76
2021/12/31 06:55:06;;;;;;;2.40;2.10;;;8.40;99.90;;;;;;5052047;28;20257;-76
2021/12/31 06:57:34;;;;;;;2.72;2.05;;;8.40;99.90;;;;;;5051900;28;20205;-77
2021/12/31 07:00:00;;;;;;;2.08;1.88;;;8.40;99.90;;;;;;5051941;28;20632;-76
2021/12/31 07:02:27;;;;;;;3.20;2.28;;;8.40;99.90;;;;;;5051428;28;20197;-76
2021/12/31 07:04:54;;;;;;;3.10;2.60;;;8.40;99.90;;;;;;5051991;28;20232;-76
2021/12/31 07:07:20;;;;;;;2.83;2.22;;;8.40;99.90;;;;;;5051835;28;20298;-76
2021/12/31 07:09:47;;;;;;;2.40;2.20;;;8.40;99.90;;;;;;5052310;28;20573;-77
2021/12/31 07:12:14;;;;;;;2.38;2.17;;;8.40;99.90;;;;;;5051001;28;20197;-77
2021/12/31 07:14:42;;;;;;;2.58;2.38;;;8.30;99.90;;;;;;5052124;28;20605;-76
2021/12/31 07:17:10;;;;;;;2.80;2.50;;;8.30;99.90;;;;;;5051687;28;20205;-76
2021/12/31 07:19:37;;;;;;;3.17;2.75;;;8.30;99.90;;;;;;5051613;28;20263;-76
2021/12/31 07:22:04;;;;;;;3.47;3.17;;;8.40;99.90;;;;;;5051035;28;20205;-76
2021/12/31 07:24:30;;;;;;;3.50;2.80;;;8.30;99.90;;;;;;5051515;28;20565;-76
2021/12/31 07:26:57;;;;;;;3.35;2.40;;;8.40;99.90;;;;;;5051586;28;20200;-76
2021/12/31 07:29:24;;;;;;;3.00;2.67;;;8.40;99.90;;;;;;5051705;28;20197;-76
2021/12/31 07:31:52;;;;;;;2.75;2.50;;;8.40;99.90;;;;;;5050741;28;20637;-76
2021/12/31 07:34:18;;;;;;;4.40;2.90;;;8.40;99.90;;;;;;5051143;28;20498;-76
2021/12/31 07:36:45;;;;;;;5.55;3.35;;;8.30;99.90;;;;;;5050921;28;20214;-76
2021/12/31 07:39:13;;;;;;;3.53;2.60;;;8.30;99.90;;;;;;5051394;28;20696;-76
2021/12/31 07:41:40;;;;;;;3.80;3.33;;;8.30;99.90;;;;;;5050536;28;20669;-73
2021/12/31 07:44:07;;;;;;;4.47;2.80;;;8.30;99.90;;;;;;5052851;28;20228;-78
2021/12/31 07:46:34;;;;;;;3.17;2.88;;;8.40;99.90;;;;;;5053488;28;20212;-79
2021/12/31 07:49:03;;;;;;;4.70;4.00;;;8.40;99.90;;;;;;5050595;28;20459;-74
2021/12/31 07:51:30;;;;;;;4.30;3.15;;;8.40;99.90;;;;;;5049993;28;20216;-74
2021/12/31 07:53:56;;;;;;;4.03;3.60;;;8.40;99.90;;;;;;5050703;28;20221;-75
2021/12/31 07:56:23;;;;;;;3.75;2.80;;;8.50;99.90;;;;;;5050633;28;20197;-75
2021/12/31 07:58:50;;;;;;;5.90;3.85;;;8.50;99.90;;;;;;5050507;28;20210;-74
2021/12/31 08:01:17;;;;;;;4.32;3.50;;;8.50;99.90;;;;;;5050292;28;20212;-75
2021/12/31 08:03:44;;;;;;;5.25;3.83;;;8.70;99.90;;;;;;5050659;28;20271;-75
2021/12/31 08:06:12;;;;;;;4.97;3.40;;;9.00;99.90;;;;;;5050740;28;20220;-75
2021/12/31 08:08:39;;;;;;;4.00;2.97;;;9.40;99.90;;;;;;5050477;28;20237;-75
2021/12/31 08:11:06;;;;;;;6.53;3.20;;;10.00;99.90;;;;;;5049658;28;20603;-75
2021/12/31 08:13:33;;;;;;;4.60;3.00;;;10.70;99.90;;;;;;5051052;28;20233;-74
2021/12/31 08:15:59;;;;;;;2.92;2.67;;;11.40;99.90;;;;;;5050273;28;20205;-74
2021/12/31 08:18:26;;;;;;;3.90;3.13;;;12.00;99.90;;;;;;5049247;28;20204;-74
2021/12/31 08:20:53;;;;;;;3.25;2.67;;;12.30;99.90;;;;;;5049270;28;20221;-74
2021/12/31 08:23:21;;;;;;;3.20;2.80;;;12.40;99.90;;;;;;5050591;28;20228;-74
2021/12/31 08:25:48;;;;;;;3.38;3.05;;;12.60;99.90;;;;;;5050409;28;20227;-74
2021/12/31 08:28:14;;;;;;;3.38;2.40;;;12.90;99.90;;;;;;5050162;28;20212;-74
2021/12/31 08:30:41;;;;;;;3.35;3.05;;;13.10;99.90;;;;;;5050608;28;20558;-74
2021/12/31 08:33:08;;;;;;;2.97;2.67;;;13.50;99.90;;;;;;5048059;28;20221;-74
2021/12/31 08:35:35;;;;;;;3.47;3.17;;;13.80;99.90;;;;;;5050361;28;20205;-74
2021/12/31 08:38:02;;;;;;;2.83;2.53;;;14.00;99.90;;;;;;5049457;28;20216;-74
2021/12/31 08:40:30;;;;;;;3.55;2.95;;;14.00;99.90;;;;;;5050133;28;20221;-74
2021/12/31 08:42:57;;;;;;;3.47;2.70;;;14.00;99.90;;;;;;5049336;28;20205;-74
2021/12/31 08:45:25;;;;;;;4.83;3.33;;;14.00;99.90;;;;;;5050321;28;20470;-74
2021/12/31 08:47:52;;;;;;;4.07;3.27;;;14.30;99.90;;;;;;5047029;28;20468;-74
2021/12/31 08:50:19;;;;;;;4.22;3.05;;;14.10;99.90;;;;;;5053027;28;20505;-74
2021/12/31 08:52:46;;;;;;;3.30;3.00;;;14.10;99.90;;;;;;5054017;28;20201;-74
2021/12/31 08:55:13;;;;;;;4.63;3.70;;;14.00;99.90;;;;;;5054281;28;20487;-74
2021/12/31 08:57:42;;;;;;;3.83;3.37;;;13.80;99.90;;;;;;5054070;28;20962;-74
2021/12/31 09:00:10;;;;;;;4.22;3.70;;;13.20;99.90;;;;;;5054413;28;20565;-74
2021/12/31 09:02:38;;;;;;;4.70;3.75;;;12.60;99.90;;;;;;5054293;28;20673;-75
2021/12/31 09:05:06;;;;;;;4.30;3.90;;;12.10;99.90;;;;;;5055464;28;20231;-74
2021/12/31 09:07:32;;;;;;;3.95;3.45;;;11.70;99.90;;;;;;5054206;28;20588;-74
2021/12/31 09:09:59;;;;;;;4.30;3.90;;;11.40;99.90;;;;;;5056800;28;20200;-74
2021/12/31 09:12:26;;;;;;;4.95;4.45;;;11.00;99.90;;;;;;5062508;28;20205;-74
2021/12/31 09:14:54;;;;;;;4.50;4.10;;;10.80;99.90;;;;;;5054232;28;20722;-74
2021/12/31 09:17:22;;;;;;;5.45;4.65;;;10.70;99.90;;;;;;5054747;28;20205;-74
2021/12/31 09:19:49;;;;;;;5.88;5.20;;;10.60;99.90;;;;;;5053627;28;20217;-74
2021/12/31 09:22:16;;;;;;;6.05;4.10;;;10.60;99.90;;;;;;5054110;28;20228;-75
2021/12/31 09:24:42;;;;;;;4.75;4.28;;;10.70;99.90;;;;;;5053958;28;20319;-74
2021/12/31 09:27:10;;;;;;;5.85;4.50;;;10.90;99.90;;;;;;5053918;28;20679;-74
2021/12/31 09:29:36;;;;;;;8.07;4.95;;;11.10;99.90;;;;;;5053991;28;20201;-75
2021/12/31 09:32:06;;;;;;;5.18;4.55;;;11.60;99.90;;;;;;5053793;28;20259;-74
2021/12/31 09:34:32;;;;;;;5.07;4.57;;;12.80;99.90;;;;;;5052303;28;20221;-74
2021/12/31 09:36:59;;;;;;;5.00;4.60;;;13.70;99.90;;;;;;5053136;28;20217;-74
2021/12/31 09:39:26;;;;;;;4.60;4.20;;;14.00;99.90;;;;;;5150379;22;20220;-76
2021/12/31 09:41:53;;;;;;;4.13;3.72;;;15.10;99.90;;;;;;5052985;28;20566;-76
2021/12/31 09:44:21;;;;;;;4.17;3.70;;;16.50;99.90;;;;;;5052954;28;20612;-76
2021/12/31 09:46:47;;;;;;;4.53;4.13;;;17.10;99.90;;;;;;5053754;28;20467;-76
2021/12/31 09:49:16;;;;;;;4.30;3.90;;;17.30;99.90;;;;;;5052339;28;20458;-76
2021/12/31 09:51:44;;;;;;;4.70;4.23;;;18.50;99.90;;;;;;5052991;28;20459;-76
2021/12/31 09:54:12;;;;;;;4.47;3.87;;;19.40;99.90;;;;;;5053044;28;20990;-76
2021/12/31 09:56:40;;;;;;;4.60;4.20;;;19.30;99.90;;;;;;5053120;28;20466;-76
2021/12/31 09:59:07;;;;;;;4.00;3.37;;;19.10;99.90;;;;;;5052901;28;20490;-76
2021/12/31 10:01:34;;;;;;;4.30;3.80;;;19.60;99.90;;;;;;5051793;28;20497;-76
2021/12/31 10:04:01;;;;;;;6.90;4.30;;;20.10;99.90;;;;;;5052850;28;20486;-77
2021/12/31 10:06:29;;;;;;;4.90;3.43;;;20.20;99.90;;;;;;5052959;28;20495;-76
2021/12/31 10:09:04;;;;;;;5.03;3.63;;;20.30;99.90;;;;;;5052468;28;20460;-76
2021/12/31 10:11:30;;;;;;;4.47;4.07;;;20.30;99.90;;;;;;5052460;28;20962;-76
2021/12/31 10:14:00;;;;;;;4.03;3.63;;;19.70;99.90;;;;;;5052632;28;20506;-76
2021/12/31 10:16:28;;;;;;;4.00;3.63;;;18.70;99.90;;;;;;5052931;28;20470;-76
2021/12/31 10:19:06;;;;;;;5.17;4.30;;;18.10;99.90;;;;;;5052060;28;20981;-77
2021/12/31 10:21:43;;;;;;;4.30;3.90;;;17.40;99.90;;;;;;5052049;28;20487;-76
2021/12/31 10:24:21;;;;;;;3.67;3.33;;;18.10;99.90;;;;;;5052584;28;20490;-76
2021/12/31 10:26:48;;;;;;;4.13;3.77;;;18.90;99.90;;;;;;5052550;28;20839;-76
2021/12/31 10:29:15;;;;;;;3.70;3.20;;;19.70;99.90;;;;;;5052601;28;20466;-76
2021/12/31 10:31:43;;;;;;;4.20;3.90;;;20.40;99.90;;;;;;5051936;28;21103;-77
2021/12/31 10:34:26;;;;;;;4.00;3.60;;;20.60;99.90;;;;;;5052182;28;20885;-77
2021/12/31 10:36:54;;;;;;;4.13;3.73;;;21.60;99.90;;;;;;5051796;28;20459;-76
2021/12/31 10:39:23;;;;;;;3.63;3.33;;;22.80;99.90;;;;;;5052321;28;20471;-76
2021/12/31 10:42:04;;;;;;;3.53;3.23;;;23.60;99.90;;;;;;5051507;28;20479;-76
2021/12/31 10:44:45;;;;;;;4.07;3.70;;;24.20;99.90;;;;;;5052090;28;20861;-76
2021/12/31 10:47:14;;;;;;;3.87;3.57;;;23.50;99.90;;;;;;5051710;28;20569;-77
2021/12/31 10:50:10;;;;;;;3.53;3.23;;;23.50;99.90;;;;;;5051871;28;20994;-76
2021/12/31 10:52:42;;;;;;;4.17;3.77;;;23.90;99.90;;;;;;5052121;28;20467;-76
2021/12/31 10:55:21;;;;;;;4.33;2.80;;;24.20;99.90;;;;;;5052191;28;20467;-76
2021/12/31 10:57:49;;;;;;;3.40;3.10;;;23.50;99.90;;;;;;5052207;28;20463;-76
2021/12/31 11:00:17;;;;;;;3.47;3.00;;;22.30;99.90;;;;;;5052245;28;20486;-76
2021/12/31 11:02:45;;;;;;;3.33;3.07;;;22.20;99.90;;;;;;5051109;28;20459;-76
2021/12/31 11:05:13;;;;;;;2.80;2.60;;;23.30;99.90;;;;;;5051489;28;21125;-76
2021/12/31 11:07:42;;;;;;;2.97;2.77;;;24.00;99.90;;;;;;5051871;28;20197;-75
2021/12/31 11:10:10;;;;;;;2.80;2.60;;;24.50;99.90;;;;;;5052268;28;20459;-75
2021/12/31 11:12:38;;;;;;;3.07;2.87;;;24.00;99.90;;;;;;5049737;28;20460;-75
2021/12/31 11:15:06;;;;;;;2.73;2.53;;;24.20;99.90;;;;;;5051928;28;21028;-75
2021/12/31 11:17:33;;;;;;;2.93;2.70;;;24.40;99.90;;;;;;5052015;28;20538;-75
2021/12/31 11:20:00;;;;;;;3.17;2.87;;;24.50;99.90;;;;;;5051531;28;20474;-74
2021/12/31 11:22:30;;;;;;;3.50;3.20;;;23.50;99.90;;;;;;5051476;28;20460;-74
2021/12/31 11:25:24;;;;;;;3.30;3.00;;;22.70;99.90;;;;;;5051297;28;20479;-74
2021/12/31 11:27:52;;;;;;;2.87;2.67;;;22.10;99.90;;;;;;5051806;28;20508;-77
2021/12/31 11:30:28;;;;;;;2.77;2.57;;;22.00;99.90;;;;;;5051503;28;20454;-76
2021/12/31 11:32:57;;;;;;;2.70;2.50;;;22.20;99.90;;;;;;5051224;28;20451;-76
2021/12/31 11:35:29;;;;;;;2.87;2.60;;;22.50;99.90;;;;;;5051369;28;20966;-76
2021/12/31 11:37:56;;;;;;;2.60;2.40;;;22.40;99.90;;;;;;5051201;28;20459;-75
2021/12/31 11:40:32;;;;;;;2.77;2.57;;;22.50;99.90;;;;;;5051688;28;20862;-73
2021/12/31 11:43:26;;;;;;;3.20;2.90;;;21.90;99.90;;;;;;5050797;28;20463;-74
2021/12/31 11:46:29;;;;;;;4.17;2.30;;;22.10;99.90;;;;;;5051587;28;20459;-73
2021/12/31 11:48:58;;;;;;;6.47;2.43;;;22.10;99.90;;;;;;5050917;28;20459;-73
2021/12/31 11:51:28;;;;;;;3.40;2.80;;;21.20;99.90;;;;;;5051191;28;20842;-73
2021/12/31 11:54:20;;;;;;;3.67;2.40;;;21.10;99.90;;;;;;5050865;28;20487;-73
2021/12/31 11:57:11;;;;;;;2.87;2.67;;;20.80;99.90;;;;;;5051647;28;20455;-73
2021/12/31 11:59:45;;;;;;;3.23;2.93;;;20.40;99.90;;;;;;5050902;28;20470;-73
2021/12/31 12:02:18;;;;;;;2.50;2.27;;;20.70;99.90;;;;;;5050408;28;20482;-73
2021/12/31 12:04:47;;;;;;;2.57;2.37;;;21.50;99.90;;;;;;5050808;28;20487;-73
2021/12/31 12:07:33;;;;;;;2.93;2.70;;;21.90;99.90;;;;;;5050738;28;20938;-72
2021/12/31 12:10:25;;;;;;;4.50;2.67;;;20.90;99.90;;;;;;5050490;28;20474;-73
2021/12/31 12:12:56;;;;;;;2.93;2.63;;;20.20;99.90;;;;;;5043667;28;20470;-72
2021/12/31 12:15:32;;;;;;;3.17;2.23;;;19.70;99.90;;;;;;5047125;28;20450;-74
2021/12/31 12:18:00;;;;;;;3.30;2.20;;;18.80;99.90;;;;;;5046530;28;20546;-75
2021/12/31 12:20:50;;;;;;;2.60;2.40;;;18.50;99.90;;;;;;5046598;28;20451;-75
2021/12/31 12:23:19;;;;;;;2.00;1.90;;;18.70;99.90;;;;;;5042248;28;20483;-74
2021/12/31 12:25:47;;;;;;;2.00;1.90;;;19.10;99.90;;;;;;5046118;28;20977;-74
2021/12/31 12:28:16;;;;;;;2.73;2.00;;;19.30;99.90;;;;;;5045921;28;20443;-75
2021/12/31 12:30:48;;;;;;;2.50;2.07;;;19.30;99.90;;;;;;5045548;28;20460;-74
2021/12/31 12:33:22;;;;;;;2.10;1.90;;;19.30;99.90;;;;;;5045610;28;20486;-73
2021/12/31 12:35:50;;;;;;;2.20;2.00;;;19.10;99.90;;;;;;5046303;28;20469;-73
2021/12/31 12:38:19;;;;;;;2.30;2.10;;;19.10;99.90;;;;;;5046174;28;20467;-75
2021/12/31 12:40:49;;;;;;;2.60;2.40;;;19.10;99.90;;;;;;5045966;28;20485;-75
2021/12/31 12:43:19;;;;;;;2.23;2.03;;;18.90;99.90;;;;;;5045927;28;20884;-76
2021/12/31 12:45:48;;;;;;;2.87;2.60;;;18.80;99.90;;;;;;5046204;28;20559;-76
2021/12/31 12:48:16;;;;;;;2.50;2.30;;;19.00;99.90;;;;;;5045995;28;20497;-76
2021/12/31 12:50:51;;;;;;;2.50;2.30;;;19.50;99.90;;;;;;5046068;28;20550;-76
2021/12/31 12:53:22;;;;;;;2.60;2.40;;;20.00;99.90;;;;;;5040197;28;20523;-76
2021/12/31 12:55:49;;;;;;;3.63;3.30;;;19.80;99.90;;;;;;5006614;28;20823;-76
2021/12/31 12:58:24;;;;;;;2.97;2.70;;;19.40;99.90;;;;;;5007219;28;20473;-76
2021/12/31 13:00:55;;;;;;;2.50;2.30;;;18.70;99.90;;;;;;5006433;28;20516;-76